createdAt,value
2023-02-27T00:00:18.623Z,9.57
2023-02-27T00:00:53.290Z,7.95
2023-02-27T00:01:25.813Z,9.02
2023-02-27T00:01:58.190Z,7.70
2023-02-27T00:02:34.216Z,10.07
2023-02-27T00:03:06.632Z,6.90
2023-02-27T00:03:39.021Z,8.90
2023-02-27T00:04:13.803Z,9.85
2023-02-27T00:04:48.623Z,7.97
2023-02-27T00:05:22.643Z,6.40
2023-02-27T00:05:56.439Z,6.70
2023-02-27T00:06:31.827Z,6.82
2023-02-27T00:07:04.004Z,6.45
2023-02-27T00:07:36.130Z,7.93
2023-02-27T00:08:11.093Z,7.25
2023-02-27T00:08:43.287Z,6.82
2023-02-27T00:09:15.409Z,11.52
2023-02-27T00:09:50.097Z,9.60
2023-02-27T00:10:22.449Z,7.25
2023-02-27T00:10:54.601Z,8.45
2023-02-27T00:11:29.577Z,9.05
2023-02-27T00:12:02.494Z,9.52
2023-02-27T00:12:37.821Z,12.50
2023-02-27T00:13:12.910Z,9.20
2023-02-27T00:13:45.274Z,8.48
2023-02-27T00:14:18.070Z,6.22
2023-02-27T00:14:52.768Z,7.40
2023-02-27T00:15:25.121Z,6.68
2023-02-27T00:16:00.179Z,6.10
2023-02-27T00:16:32.329Z,5.32
2023-02-27T00:17:04.690Z,5.32
2023-02-27T00:17:39.773Z,8.80
2023-02-27T00:18:11.945Z,8.07
2023-02-27T00:18:44.040Z,7.10
2023-02-27T00:19:18.931Z,8.20
2023-02-27T00:19:53.776Z,7.60
2023-02-27T00:20:26.468Z,8.27
2023-02-27T00:21:01.240Z,6.30
2023-02-27T00:21:35.829Z,8.95
2023-02-27T00:22:08.943Z,9.52
2023-02-27T00:22:42.078Z,7.05
2023-02-27T00:23:17.160Z,8.98
2023-02-27T00:23:49.357Z,10.40
2023-02-27T00:24:22.596Z,8.23
2023-02-27T00:24:57.305Z,10.48
2023-02-27T00:25:29.583Z,7.70
2023-02-27T00:26:01.771Z,9.50
2023-02-27T00:26:36.725Z,10.45
2023-02-27T00:27:08.812Z,7.93
2023-02-27T00:27:41.799Z,9.75
2023-02-27T00:28:16.608Z,8.10
2023-02-27T00:28:48.707Z,10.00
2023-02-27T00:29:20.907Z,8.15
2023-02-27T00:29:59.584Z,7.50
2023-02-27T00:30:31.700Z,6.40
2023-02-27T00:31:06.769Z,7.40
2023-02-27T00:31:39.170Z,6.38
2023-02-27T00:32:11.371Z,7.93
2023-02-27T00:32:46.604Z,7.03
2023-02-27T00:33:18.845Z,6.30
2023-02-27T00:33:53.717Z,7.70
2023-02-27T00:34:26.246Z,6.75
2023-02-27T00:35:01.058Z,7.53
2023-02-27T00:35:35.833Z,10.32
2023-02-27T00:36:08.377Z,7.07
2023-02-27T00:36:40.601Z,10.25
2023-02-27T00:37:15.356Z,7.70
2023-02-27T00:37:47.545Z,7.97
2023-02-27T00:38:19.645Z,7.07
2023-02-27T00:38:54.393Z,7.00
2023-02-27T00:39:26.568Z,7.60
2023-02-27T00:39:58.686Z,7.38
2023-02-27T00:40:35.962Z,7.45
2023-02-27T00:41:08.200Z,7.60
2023-02-27T00:41:40.376Z,7.78
2023-02-27T00:42:15.117Z,7.25
2023-02-27T00:42:48.775Z,8.38
2023-02-27T00:43:20.860Z,7.47
2023-02-27T00:43:55.538Z,6.43
2023-02-27T00:44:27.673Z,8.43
2023-02-27T00:44:59.887Z,7.97
2023-02-27T00:45:34.579Z,8.75
2023-02-27T00:46:06.971Z,5.72
2023-02-27T00:46:39.207Z,7.70
2023-02-27T00:47:14.153Z,7.68
2023-02-27T00:47:46.458Z,7.90
2023-02-27T00:48:18.656Z,5.70
2023-02-27T00:48:53.472Z,6.32
2023-02-27T00:49:26.243Z,6.13
2023-02-27T00:50:01.181Z,6.53
2023-02-27T00:50:35.957Z,6.85
2023-02-27T00:51:08.112Z,10.25
2023-02-27T00:51:40.343Z,14.30
2023-02-27T00:52:15.096Z,12.07
2023-02-27T00:52:47.276Z,8.88
2023-02-27T00:53:22.091Z,8.98
2023-02-27T00:53:54.192Z,9.40
2023-02-27T00:54:26.358Z,8.68
2023-02-27T00:55:01.061Z,8.50
2023-02-27T00:55:33.164Z,7.55
2023-02-27T00:56:05.833Z,7.22
2023-02-27T00:56:41.226Z,7.00
2023-02-27T00:57:13.461Z,8.65
2023-02-27T00:57:46.269Z,6.40
2023-02-27T00:58:21.191Z,6.82
2023-02-27T00:58:53.337Z,6.90
2023-02-27T00:59:27.198Z,8.27
2023-02-27T01:00:02.009Z,6.80
2023-02-27T01:00:34.220Z,8.35
2023-02-27T01:01:06.370Z,8.15
2023-02-27T01:01:41.239Z,7.88
2023-02-27T01:02:13.545Z,8.98
2023-02-27T01:02:45.807Z,6.63
2023-02-27T01:03:20.605Z,6.60
2023-02-27T01:03:52.714Z,6.65
2023-02-27T01:04:24.987Z,6.53
2023-02-27T01:05:04.856Z,6.30
2023-02-27T01:05:36.978Z,6.65
2023-02-27T01:06:09.205Z,5.55
2023-02-27T01:06:43.909Z,6.00
2023-02-27T01:07:16.209Z,7.85
2023-02-27T01:07:50.956Z,5.93
2023-02-27T01:08:23.091Z,5.65
2023-02-27T01:08:56.004Z,5.20
2023-02-27T01:09:32.661Z,5.80
2023-02-27T01:10:06.238Z,5.32
2023-02-27T01:10:41.056Z,6.07
2023-02-27T01:11:13.191Z,5.72
2023-02-27T01:11:45.331Z,5.75
2023-02-27T01:12:20.133Z,6.22
2023-02-27T01:12:52.411Z,7.03
2023-02-27T01:13:24.566Z,6.53
2023-02-27T01:14:00.642Z,8.00
2023-02-27T01:14:32.811Z,5.50
2023-02-27T01:15:06.767Z,6.63
2023-02-27T01:15:41.614Z,7.13
2023-02-27T01:16:14.877Z,5.10
2023-02-27T01:16:47.010Z,5.57
2023-02-27T01:17:23.183Z,5.57
2023-02-27T01:17:55.446Z,6.07
2023-02-27T01:18:27.617Z,7.72
2023-02-27T01:19:03.607Z,6.40
2023-02-27T01:19:35.708Z,5.00
2023-02-27T01:20:12.585Z,5.80
2023-02-27T01:20:47.335Z,7.45
2023-02-27T01:21:19.700Z,6.18
2023-02-27T01:21:51.870Z,5.88
2023-02-27T01:22:27.337Z,6.50
2023-02-27T01:22:59.503Z,6.25
2023-02-27T01:23:31.616Z,7.25
2023-02-27T01:24:06.652Z,6.13
2023-02-27T01:24:38.826Z,5.93
2023-02-27T01:25:14.033Z,6.55
2023-02-27T01:25:47.017Z,8.20
2023-02-27T01:26:19.137Z,6.50
2023-02-27T01:26:54.783Z,6.53
2023-02-27T01:27:27.185Z,6.30
2023-02-27T01:27:59.340Z,7.35
2023-02-27T01:28:34.083Z,7.28
2023-02-27T01:29:06.651Z,7.40
2023-02-27T01:29:38.936Z,8.32
2023-02-27T01:30:16.336Z,8.10
2023-02-27T01:30:49.922Z,6.88
2023-02-27T01:31:22.066Z,9.35
2023-02-27T01:31:56.936Z,8.07
2023-02-27T01:32:29.205Z,7.95
2023-02-27T01:33:01.429Z,8.77
2023-02-27T01:33:36.144Z,7.05
2023-02-27T01:34:08.509Z,8.73
2023-02-27T01:34:40.615Z,11.07
2023-02-27T01:35:18.066Z,9.60
2023-02-27T01:35:50.264Z,11.25
2023-02-27T01:36:22.431Z,8.45
2023-02-27T01:36:57.205Z,9.00
2023-02-27T01:37:29.324Z,9.27
2023-02-27T01:38:01.625Z,7.10
2023-02-27T01:38:36.352Z,7.65
2023-02-27T01:39:08.632Z,9.73
2023-02-27T01:39:40.764Z,8.80
2023-02-27T01:40:16.890Z,9.48
2023-02-27T01:40:49.116Z,8.10
2023-02-27T01:41:21.359Z,9.77
2023-02-27T01:41:56.542Z,8.90
2023-02-27T01:42:29.270Z,10.65
2023-02-27T01:43:01.996Z,9.27
2023-02-27T01:43:37.499Z,10.07
2023-02-27T01:44:11.903Z,9.27
2023-02-27T01:45:13.837Z,8.48
2023-02-27T01:45:50.543Z,8.73
2023-02-27T01:46:23.525Z,8.60
2023-02-27T01:46:55.816Z,7.45
2023-02-27T01:47:30.673Z,8.00
2023-02-27T01:48:12.139Z,6.25
2023-02-27T01:48:45.359Z,6.43
2023-02-27T01:49:24.507Z,7.10
2023-02-27T01:49:56.619Z,8.23
2023-02-27T01:50:32.223Z,7.10
2023-02-27T01:51:11.413Z,7.07
2023-02-27T01:51:47.960Z,7.35
2023-02-27T01:52:20.252Z,6.10
2023-02-27T01:52:59.047Z,6.70
2023-02-27T01:53:34.305Z,6.55
2023-02-27T01:54:12.153Z,7.95
2023-02-27T01:54:44.268Z,6.78
2023-02-27T01:55:16.640Z,7.45
2023-02-27T01:55:52.472Z,6.10
2023-02-27T01:56:26.256Z,6.57
2023-02-27T01:57:02.698Z,6.75
2023-02-27T01:57:35.468Z,6.03
2023-02-27T01:58:12.283Z,6.75
2023-02-27T01:58:48.375Z,7.78
2023-02-27T01:59:21.901Z,6.40
2023-02-27T01:59:55.850Z,8.32
2023-02-27T02:00:31.694Z,7.47
2023-02-27T02:01:04.054Z,6.00
2023-02-27T02:01:37.314Z,9.20
2023-02-27T02:02:17.788Z,7.32
2023-02-27T02:03:31.455Z,6.43
2023-02-27T02:04:13.295Z,6.68
2023-02-27T02:04:46.456Z,6.57
2023-02-27T02:05:19.750Z,6.60
2023-02-27T02:06:00.389Z,6.15
2023-02-27T02:06:35.949Z,6.18
2023-02-27T02:07:12.249Z,8.23
2023-02-27T02:07:48.406Z,6.85
2023-02-27T02:08:22.158Z,6.57
2023-02-27T02:08:56.328Z,7.22
2023-02-27T02:09:33.085Z,6.95
2023-02-27T02:10:07.904Z,7.38
2023-02-27T02:10:41.261Z,6.60
2023-02-27T02:11:18.590Z,6.68
2023-02-27T02:11:51.029Z,6.55
2023-02-27T02:12:27.038Z,8.20
2023-02-27T02:13:02.483Z,7.78
2023-02-27T02:13:35.490Z,9.25
2023-02-27T02:14:10.984Z,7.30
2023-02-27T02:14:47.717Z,7.95
2023-02-27T02:15:25.874Z,7.00
2023-02-27T02:16:14.616Z,7.07
2023-02-27T02:17:15.908Z,6.63
2023-02-27T02:18:01.117Z,6.47
2023-02-27T02:18:41.007Z,7.43
2023-02-27T02:19:44.028Z,7.55
2023-02-27T02:21:12.781Z,6.68
2023-02-27T02:22:28.228Z,8.43
2023-02-27T02:23:50.173Z,8.05
2023-02-27T02:24:52.219Z,7.78
2023-02-27T02:26:01.773Z,6.60
2023-02-27T02:26:44.406Z,8.27
2023-02-27T02:27:37.235Z,7.82
2023-02-27T02:28:23.732Z,6.65
2023-02-27T02:29:31.438Z,7.22
2023-02-27T02:30:54.430Z,7.18
2023-02-27T02:32:07.814Z,6.40
2023-02-27T02:33:11.909Z,7.20
2023-02-27T02:34:25.911Z,5.50
2023-02-27T02:35:29.725Z,5.93
2023-02-27T02:36:45.801Z,6.00
2023-02-27T02:37:52.482Z,6.00
2023-02-27T02:38:56.871Z,6.80
2023-02-27T02:40:06.695Z,6.30
2023-02-27T02:40:44.790Z,7.15
2023-02-27T02:41:28.990Z,6.45
2023-02-27T02:42:05.326Z,7.22
2023-02-27T02:42:43.622Z,7.60
2023-02-27T02:43:27.661Z,7.43
2023-02-27T02:44:05.237Z,5.90
2023-02-27T02:44:48.046Z,7.70
2023-02-27T02:45:30.892Z,6.97
2023-02-27T02:46:10.532Z,6.85
2023-02-27T02:46:47.935Z,10.23
2023-02-27T02:47:28.907Z,7.20
2023-02-27T02:48:09.229Z,6.15
2023-02-27T02:48:47.734Z,6.80
2023-02-27T02:49:31.561Z,7.15
2023-02-27T02:50:11.246Z,8.20
2023-02-27T02:50:50.540Z,8.65
2023-02-27T02:51:37.408Z,8.40
2023-02-27T02:52:17.745Z,9.00
2023-02-27T02:53:40.580Z,8.60
2023-02-27T02:54:21.781Z,7.80
2023-02-27T02:54:59.570Z,9.05
2023-02-27T02:55:40.253Z,8.68
2023-02-27T02:56:21.150Z,8.32
2023-02-27T02:57:00.472Z,9.48
2023-02-27T02:57:41.093Z,9.68
2023-02-27T02:58:20.469Z,9.10
2023-02-27T02:59:02.624Z,8.93
2023-02-27T02:59:40.268Z,9.45
2023-02-27T03:00:18.824Z,8.88
2023-02-27T03:00:59.301Z,8.95
2023-02-27T03:02:12.575Z,9.23
2023-02-27T03:02:49.223Z,9.05
2023-02-27T03:03:27.269Z,8.20
2023-02-27T03:04:09.828Z,10.32
2023-02-27T03:04:46.908Z,11.07
2023-02-27T03:05:25.168Z,9.80
2023-02-27T03:06:04.890Z,9.82
2023-02-27T03:06:41.728Z,11.82
2023-02-27T03:07:21.040Z,11.00
2023-02-27T03:08:00.493Z,12.32
2023-02-27T03:08:38.347Z,9.88
2023-02-27T03:09:17.997Z,10.95
2023-02-27T03:09:58.251Z,11.77
2023-02-27T03:10:35.143Z,9.48
2023-02-27T03:11:08.167Z,9.63
2023-02-27T03:11:48.343Z,9.88
2023-02-27T03:12:25.429Z,9.43
2023-02-27T03:13:05.510Z,9.30
2023-02-27T03:13:41.628Z,9.13
2023-02-27T03:14:21.927Z,8.98
2023-02-27T03:15:02.012Z,9.63
2023-02-27T03:15:39.966Z,10.50
2023-02-27T03:16:20.354Z,11.35
2023-02-27T03:16:56.168Z,8.38
2023-02-27T03:17:39.531Z,9.85
2023-02-27T03:18:20.861Z,9.98
2023-02-27T03:18:57.050Z,9.10
2023-02-27T03:19:34.609Z,9.15
2023-02-27T03:20:12.552Z,9.00
2023-02-27T03:20:49.605Z,9.52
2023-02-27T03:21:28.110Z,8.98
2023-02-27T03:22:07.537Z,9.57
2023-02-27T03:22:44.896Z,9.20
2023-02-27T03:23:21.105Z,7.72
2023-02-27T03:23:59.635Z,8.20
2023-02-27T03:24:40.096Z,8.05
2023-02-27T03:25:14.546Z,8.55
2023-02-27T03:25:57.853Z,7.75
2023-02-27T03:26:40.064Z,8.38
2023-02-27T03:27:13.682Z,7.35
2023-02-27T03:27:55.450Z,9.38
2023-02-27T03:28:32.754Z,7.28
2023-02-27T03:29:10.342Z,7.97
2023-02-27T03:29:52.994Z,8.80
2023-02-27T03:30:31.208Z,7.70
2023-02-27T03:31:11.769Z,8.10
2023-02-27T03:31:50.226Z,7.80
2023-02-27T03:32:29.373Z,7.63
2023-02-27T03:33:10.984Z,7.20
2023-02-27T03:33:49.379Z,8.70
2023-02-27T03:34:26.556Z,7.50
2023-02-27T03:35:01.728Z,8.38
2023-02-27T03:35:45.566Z,7.93
2023-02-27T03:36:29.706Z,8.27
2023-02-27T03:37:06.934Z,7.85
2023-02-27T03:37:53.233Z,7.63
2023-02-27T03:38:36.324Z,7.03
2023-02-27T03:39:17.246Z,7.63
2023-02-27T03:39:58.012Z,8.43
2023-02-27T03:40:34.696Z,7.70
2023-02-27T03:41:14.943Z,7.32
2023-02-27T03:42:05.926Z,8.38
2023-02-27T03:43:07.235Z,7.03
2023-02-27T03:43:59.709Z,6.72
2023-02-27T03:44:40.426Z,9.90
2023-02-27T03:45:23.032Z,7.75
2023-02-27T03:46:00.555Z,8.48
2023-02-27T03:46:32.929Z,9.73
2023-02-27T03:47:07.824Z,6.28
2023-02-27T03:47:40.170Z,8.90
2023-02-27T03:48:13.188Z,8.32
2023-02-27T03:48:49.260Z,7.75
2023-02-27T03:49:21.611Z,9.00
2023-02-27T03:49:56.043Z,8.38
2023-02-27T03:50:30.937Z,10.75
2023-02-27T03:51:03.852Z,7.30
2023-02-27T03:51:36.735Z,10.23
2023-02-27T03:52:09.195Z,8.60
2023-02-27T03:52:44.161Z,10.35
2023-02-27T03:53:21.768Z,8.70
2023-02-27T03:54:01.714Z,11.13
2023-02-27T03:54:41.517Z,13.30
2023-02-27T03:55:19.265Z,9.52
2023-02-27T03:55:53.693Z,9.55
2023-02-27T03:56:32.472Z,8.38
2023-02-27T03:57:06.815Z,10.32
2023-02-27T03:57:40.278Z,10.48
2023-02-27T03:58:15.474Z,8.75
2023-02-27T03:58:49.504Z,8.25
2023-02-27T03:59:23.316Z,10.73
2023-02-27T04:00:00.752Z,9.30
2023-02-27T04:00:33.559Z,11.63
2023-02-27T04:01:05.920Z,10.00
2023-02-27T04:01:40.990Z,10.57
2023-02-27T04:02:13.560Z,9.05
2023-02-27T04:02:50.279Z,11.05
2023-02-27T04:03:27.870Z,9.50
2023-02-27T04:04:05.117Z,11.07
2023-02-27T04:04:58.122Z,9.50
2023-02-27T04:06:22.323Z,8.88
2023-02-27T04:07:14.055Z,9.13
2023-02-27T04:07:59.576Z,9.23
2023-02-27T04:08:47.261Z,10.32
2023-02-27T04:09:29.270Z,9.10
2023-02-27T04:10:42.106Z,8.80
2023-02-27T04:11:32.763Z,9.82
2023-02-27T04:13:12.053Z,10.60
2023-02-27T04:13:50.536Z,11.13
2023-02-27T04:14:50.241Z,12.13
2023-02-27T04:15:35.974Z,11.02
2023-02-27T04:16:31.404Z,11.93
2023-02-27T04:17:16.425Z,13.02
2023-02-27T04:17:59.022Z,14.45
2023-02-27T04:18:50.812Z,14.88
2023-02-27T04:19:40.530Z,14.07
2023-02-27T04:20:33.884Z,19.75
2023-02-27T04:21:13.022Z,14.77
2023-02-27T04:21:57.303Z,13.30
2023-02-27T04:22:35.805Z,16.70
2023-02-27T04:23:16.066Z,17.27
2023-02-27T04:24:36.434Z,13.85
2023-02-27T04:25:30.412Z,11.95
2023-02-27T04:26:18.031Z,12.23
2023-02-27T04:26:57.230Z,12.02
2023-02-27T04:27:37.430Z,12.00
2023-02-27T04:28:20.266Z,10.35
2023-02-27T04:29:03.134Z,9.43
2023-02-27T04:29:42.066Z,9.75
2023-02-27T04:30:28.712Z,11.50
2023-02-27T04:31:08.706Z,10.98
2023-02-27T04:31:46.253Z,9.10
2023-02-27T04:32:28.769Z,9.23
2023-02-27T04:33:07.673Z,8.25
2023-02-27T04:33:48.145Z,9.65
2023-02-27T04:35:00.040Z,8.88
2023-02-27T04:35:41.303Z,8.63
2023-02-27T04:36:23.524Z,10.23
2023-02-27T04:37:03.862Z,9.52
2023-02-27T04:38:22.414Z,14.70
2023-02-27T04:39:06.297Z,17.20
2023-02-27T04:39:51.671Z,15.30
2023-02-27T04:40:33.427Z,15.43
2023-02-27T04:41:15.821Z,13.35
2023-02-27T04:41:53.155Z,16.17
2023-02-27T04:42:29.193Z,15.68
2023-02-27T04:43:06.768Z,15.23
2023-02-27T04:43:41.914Z,14.68
2023-02-27T04:44:16.359Z,12.90
2023-02-27T04:44:53.069Z,11.77
2023-02-27T04:45:27.867Z,11.88
2023-02-27T04:46:02.879Z,11.02
2023-02-27T04:46:41.381Z,11.50
2023-02-27T04:47:16.610Z,10.77
2023-02-27T04:47:53.597Z,10.30
2023-02-27T04:48:33.215Z,11.23
2023-02-27T04:49:12.520Z,11.77
2023-02-27T04:49:48.338Z,12.82
2023-02-27T04:50:28.863Z,11.27
2023-02-27T04:51:05.533Z,11.45
2023-02-27T04:51:44.499Z,11.27
2023-02-27T04:52:23.505Z,10.48
2023-02-27T04:53:02.094Z,10.50
2023-02-27T04:53:41.774Z,18.90
2023-02-27T04:54:18.086Z,16.95
2023-02-27T04:54:55.232Z,21.75
2023-02-27T04:55:33.362Z,18.02
2023-02-27T04:56:14.595Z,14.43
2023-02-27T04:56:52.744Z,13.35
2023-02-27T04:57:33.171Z,12.38
2023-02-27T04:58:45.606Z,12.48
2023-02-27T04:59:25.003Z,11.85
2023-02-27T05:00:00.416Z,11.27
2023-02-27T05:00:35.431Z,12.90
2023-02-27T05:01:18.071Z,10.55
2023-02-27T05:01:55.616Z,10.13
2023-02-27T05:02:33.519Z,10.60
2023-02-27T05:03:14.806Z,10.73
2023-02-27T05:03:50.248Z,11.80
2023-02-27T05:04:25.678Z,12.50
2023-02-27T05:05:03.261Z,15.15
2023-02-27T05:05:38.479Z,17.00
2023-02-27T05:06:11.497Z,16.35
2023-02-27T05:06:48.856Z,16.33
2023-02-27T05:07:25.946Z,16.70
2023-02-27T05:08:03.619Z,15.50
2023-02-27T05:08:48.322Z,14.25
2023-02-27T05:09:27.184Z,11.55
2023-02-27T05:10:02.718Z,14.95
2023-02-27T05:10:42.836Z,11.13
2023-02-27T05:11:27.167Z,11.20
2023-02-27T05:12:06.725Z,11.80
2023-02-27T05:12:45.966Z,11.30
2023-02-27T05:13:22.795Z,9.98
2023-02-27T05:14:01.189Z,11.27
2023-02-27T05:14:38.036Z,12.90
2023-02-27T05:15:14.530Z,12.90
2023-02-27T05:15:52.136Z,10.63
2023-02-27T05:16:29.680Z,11.57
2023-02-27T05:17:07.709Z,10.40
2023-02-27T05:17:49.066Z,9.98
2023-02-27T05:18:22.690Z,10.57
2023-02-27T05:18:55.800Z,10.45
2023-02-27T05:19:30.597Z,9.80
2023-02-27T05:20:05.257Z,11.75
2023-02-27T05:20:49.320Z,11.48
2023-02-27T05:21:30.404Z,10.15
2023-02-27T05:22:18.061Z,12.85
2023-02-27T05:23:02.189Z,9.35
2023-02-27T05:23:44.075Z,11.07
2023-02-27T05:24:27.228Z,10.68
2023-02-27T05:25:08.498Z,9.55
2023-02-27T05:25:49.129Z,10.90
2023-02-27T05:26:35.246Z,8.75
2023-02-27T05:27:17.974Z,9.35
2023-02-27T05:27:54.178Z,12.20
2023-02-27T05:28:37.068Z,10.50
2023-02-27T05:29:17.396Z,9.13
2023-02-27T05:30:28.925Z,9.73
2023-02-27T05:31:07.947Z,10.05
2023-02-27T05:31:47.698Z,11.68
2023-02-27T05:32:30.791Z,9.73
2023-02-27T05:33:08.954Z,11.25
2023-02-27T05:33:49.199Z,11.63
2023-02-27T05:34:28.124Z,12.98
2023-02-27T05:35:08.976Z,11.35
2023-02-27T05:35:51.435Z,12.82
2023-02-27T05:36:30.365Z,18.30
2023-02-27T05:37:08.561Z,12.13
2023-02-27T05:37:47.684Z,11.05
2023-02-27T05:38:25.853Z,11.65
2023-02-27T05:39:01.927Z,10.38
2023-02-27T05:39:40.382Z,11.65
2023-02-27T05:40:17.134Z,10.63
2023-02-27T05:40:54.071Z,10.98
2023-02-27T05:41:35.863Z,10.18
2023-02-27T05:42:14.182Z,11.02
2023-02-27T05:42:53.774Z,10.30
2023-02-27T05:43:31.925Z,9.57
2023-02-27T05:44:09.330Z,9.90
2023-02-27T05:44:45.434Z,9.48
2023-02-27T05:45:24.767Z,11.15
2023-02-27T05:46:01.617Z,10.35
2023-02-27T05:46:37.682Z,8.82
2023-02-27T05:47:16.437Z,10.13
2023-02-27T05:47:54.927Z,11.18
2023-02-27T05:48:30.710Z,9.98
2023-02-27T05:49:11.256Z,10.05
2023-02-27T05:49:47.890Z,11.65
2023-02-27T05:50:23.814Z,12.07
2023-02-27T05:51:01.033Z,12.02
2023-02-27T05:51:35.744Z,11.73
2023-02-27T05:52:12.311Z,12.55
2023-02-27T05:52:50.292Z,10.80
2023-02-27T05:53:27.544Z,11.55
2023-02-27T05:54:03.221Z,10.75
2023-02-27T05:54:39.164Z,9.60
2023-02-27T05:55:20.262Z,11.55
2023-02-27T05:55:55.098Z,9.18
2023-02-27T05:56:35.744Z,11.77
2023-02-27T05:57:13.751Z,12.13
2023-02-27T05:57:51.878Z,10.18
2023-02-27T05:58:27.820Z,10.65
2023-02-27T05:59:06.346Z,9.98
2023-02-27T05:59:44.401Z,10.52
2023-02-27T06:00:21.549Z,10.10
2023-02-27T06:01:00.144Z,10.77
2023-02-27T06:01:33.242Z,13.65
2023-02-27T06:02:05.893Z,10.98
2023-02-27T06:02:41.348Z,12.30
2023-02-27T06:03:15.698Z,13.45
2023-02-27T06:03:50.563Z,12.50
2023-02-27T06:04:22.829Z,12.95
2023-02-27T06:04:55.203Z,15.27
2023-02-27T06:05:30.967Z,10.93
2023-02-27T06:06:06.831Z,12.15
2023-02-27T06:06:42.018Z,13.65
2023-02-27T06:07:17.376Z,12.50
2023-02-27T06:07:49.459Z,14.88
2023-02-27T06:08:22.527Z,14.77
2023-02-27T06:08:57.235Z,13.60
2023-02-27T06:09:29.382Z,11.63
2023-02-27T06:10:01.779Z,11.82
2023-02-27T06:10:37.230Z,12.90
2023-02-27T06:11:09.362Z,12.20
2023-02-27T06:11:46.627Z,15.13
2023-02-27T06:12:19.429Z,13.68
2023-02-27T06:12:51.571Z,15.23
2023-02-27T06:13:27.297Z,15.23
2023-02-27T06:13:59.446Z,13.20
2023-02-27T06:14:31.546Z,15.95
2023-02-27T06:15:06.511Z,13.65
2023-02-27T06:15:39.110Z,14.10
2023-02-27T06:16:20.504Z,13.63
2023-02-27T06:16:52.678Z,11.73
2023-02-27T06:17:24.965Z,12.98
2023-02-27T06:17:59.763Z,13.82
2023-02-27T06:18:31.866Z,13.93
2023-02-27T06:19:05.039Z,18.13
2023-02-27T06:19:39.823Z,15.90
2023-02-27T06:20:12.853Z,16.42
2023-02-27T06:20:48.673Z,16.40
2023-02-27T06:21:20.876Z,18.48
2023-02-27T06:21:52.991Z,17.38
2023-02-27T06:22:27.773Z,15.27
2023-02-27T06:22:59.877Z,16.65
2023-02-27T06:23:34.672Z,19.38
2023-02-27T06:24:07.000Z,15.35
2023-02-27T06:24:39.541Z,17.88
2023-02-27T06:25:14.375Z,18.75
2023-02-27T06:25:47.169Z,13.82
2023-02-27T06:26:21.921Z,15.15
2023-02-27T06:26:56.651Z,14.60
2023-02-27T06:27:28.836Z,13.35
2023-02-27T06:28:03.950Z,12.10
2023-02-27T06:28:36.118Z,16.10
2023-02-27T06:29:10.940Z,14.18
2023-02-27T06:29:47.561Z,15.15
2023-02-27T06:30:20.097Z,14.15
2023-02-27T06:30:54.098Z,14.23
2023-02-27T06:31:29.056Z,12.77
2023-02-27T06:32:01.511Z,13.77
2023-02-27T06:32:33.765Z,16.67
2023-02-27T06:33:08.535Z,15.10
2023-02-27T06:33:41.043Z,15.38
2023-02-27T06:34:13.161Z,14.30
2023-02-27T06:34:47.886Z,12.55
2023-02-27T06:35:20.206Z,15.85
2023-02-27T06:35:58.123Z,13.25
2023-02-27T06:36:30.649Z,15.40
2023-02-27T06:37:06.028Z,12.50
2023-02-27T06:37:41.153Z,12.68
2023-02-27T06:38:13.283Z,10.13
2023-02-27T06:38:45.381Z,13.27
2023-02-27T06:39:20.105Z,12.55
2023-02-27T06:39:52.239Z,11.45
2023-02-27T06:40:24.832Z,9.52
2023-02-27T06:40:59.486Z,10.48
2023-02-27T06:41:31.627Z,12.30
2023-02-27T06:42:09.294Z,12.07
2023-02-27T06:42:42.740Z,10.73
2023-02-27T06:43:15.104Z,12.45
2023-02-27T06:43:49.840Z,14.30
2023-02-27T06:44:21.982Z,14.23
2023-02-27T06:44:56.663Z,15.95
2023-02-27T06:45:28.809Z,17.00
2023-02-27T06:46:01.191Z,12.93
2023-02-27T06:46:35.951Z,11.57
2023-02-27T06:47:08.347Z,13.68
2023-02-27T06:47:41.374Z,13.18
2023-02-27T06:48:16.213Z,15.80
2023-02-27T06:48:48.348Z,14.13
2023-02-27T06:49:20.710Z,14.52
2023-02-27T06:49:55.365Z,13.88
2023-02-27T06:50:28.594Z,10.45
2023-02-27T06:51:00.747Z,12.73
2023-02-27T06:51:35.534Z,12.05
2023-02-27T06:52:07.732Z,12.55
2023-02-27T06:52:40.876Z,13.75
2023-02-27T06:53:15.615Z,11.60
2023-02-27T06:53:47.799Z,13.75
2023-02-27T06:54:20.152Z,14.43
2023-02-27T06:54:54.870Z,17.35
2023-02-27T06:55:26.953Z,16.00
2023-02-27T06:55:59.092Z,16.45
2023-02-27T06:56:33.765Z,24.88
2023-02-27T06:57:08.544Z,18.55
2023-02-27T06:57:40.643Z,19.48
2023-02-27T06:58:15.447Z,24.58
2023-02-27T06:58:47.535Z,20.95
2023-02-27T06:59:19.742Z,17.92
2023-02-27T06:59:55.876Z,21.48
2023-02-27T07:00:29.499Z,19.23
2023-02-27T07:01:01.790Z,18.88
2023-02-27T07:01:36.981Z,18.67
2023-02-27T07:02:13.322Z,18.45
2023-02-27T07:02:48.352Z,19.40
2023-02-27T07:03:20.524Z,17.90
2023-02-27T07:03:55.403Z,20.02
2023-02-27T07:04:27.558Z,16.25
2023-02-27T07:04:59.781Z,19.98
2023-02-27T07:05:34.681Z,19.67
2023-02-27T07:06:07.520Z,16.70
2023-02-27T07:07:35.795Z,16.27
2023-02-27T07:07:37.981Z,15.15
2023-02-27T07:08:13.748Z,15.60
2023-02-27T07:09:00.891Z,15.85
2023-02-27T07:09:40.795Z,18.95
2023-02-27T07:10:14.393Z,16.05
2023-02-27T07:10:49.287Z,16.10
2023-02-27T07:11:21.474Z,14.10
2023-02-27T07:11:53.587Z,13.40
2023-02-27T07:12:30.857Z,15.15
2023-02-27T07:13:03.594Z,12.65
2023-02-27T07:13:36.531Z,12.98
2023-02-27T07:14:12.590Z,13.13
2023-02-27T07:14:44.692Z,13.50
2023-02-27T07:15:17.417Z,13.18
2023-02-27T07:15:53.095Z,9.60
2023-02-27T07:16:25.510Z,13.32
2023-02-27T07:17:04.577Z,11.73
2023-02-27T07:17:37.997Z,13.50
2023-02-27T07:18:10.084Z,9.63
2023-02-27T07:18:44.933Z,12.32
2023-02-27T07:19:17.253Z,9.32
2023-02-27T07:19:49.408Z,12.25
2023-02-27T07:20:24.199Z,13.10
2023-02-27T07:20:56.372Z,12.65
2023-02-27T07:21:28.661Z,11.75
2023-02-27T07:22:03.614Z,35.63
2023-02-27T07:22:35.891Z,17.33
2023-02-27T07:23:12.519Z,17.58
2023-02-27T07:23:44.738Z,15.57
2023-02-27T07:24:19.522Z,16.90
2023-02-27T07:24:51.698Z,16.10
2023-02-27T07:25:29.134Z,15.27
2023-02-27T07:26:01.225Z,14.85
2023-02-27T07:26:33.398Z,16.95
2023-02-27T07:27:08.047Z,14.50
2023-02-27T07:27:45.672Z,13.48
2023-02-27T07:28:20.523Z,12.75
2023-02-27T07:28:52.670Z,13.43
2023-02-27T07:29:24.763Z,12.13
2023-02-27T07:29:59.768Z,11.65
2023-02-27T07:30:32.232Z,11.18
2023-02-27T07:31:07.143Z,14.05
2023-02-27T07:31:41.902Z,13.48
2023-02-27T07:32:14.020Z,13.25
2023-02-27T07:32:46.368Z,16.55
2023-02-27T07:33:21.198Z,20.58
2023-02-27T07:33:53.370Z,13.80
2023-02-27T07:34:25.541Z,14.43
2023-02-27T07:35:00.216Z,13.55
2023-02-27T07:35:32.503Z,13.88
2023-02-27T07:36:07.766Z,11.63
2023-02-27T07:36:40.079Z,13.32
2023-02-27T07:37:12.175Z,11.73
2023-02-27T07:37:46.819Z,9.25
2023-02-27T07:38:19.268Z,12.98
2023-02-27T07:38:54.335Z,12.10
2023-02-27T07:39:26.489Z,11.57
2023-02-27T07:40:01.339Z,15.63
2023-02-27T07:40:36.114Z,21.30
2023-02-27T07:41:12.100Z,27.88
2023-02-27T07:41:50.767Z,33.13
2023-02-27T07:42:25.402Z,31.20
2023-02-27T07:43:02.647Z,36.53
2023-02-27T07:43:36.362Z,38.50
2023-02-27T07:44:11.369Z,27.60
2023-02-27T07:44:43.569Z,25.40
2023-02-27T07:45:18.490Z,21.67
2023-02-27T07:45:53.330Z,16.25
2023-02-27T07:46:28.365Z,13.73
2023-02-27T07:47:00.696Z,13.20
2023-02-27T07:47:35.517Z,14.60
2023-02-27T07:48:07.613Z,13.25
2023-02-27T07:48:40.506Z,11.57
2023-02-27T07:49:15.663Z,11.15
2023-02-27T07:49:50.717Z,11.38
2023-02-27T07:50:22.868Z,12.15
2023-02-27T07:50:57.617Z,10.70
2023-02-27T07:51:29.858Z,11.40
2023-02-27T07:52:04.712Z,10.60
2023-02-27T07:52:38.564Z,12.80
2023-02-27T07:53:13.585Z,9.80
2023-02-27T07:53:45.661Z,11.45
2023-02-27T07:54:20.146Z,10.32
2023-02-27T07:54:55.083Z,10.18
2023-02-27T07:55:27.241Z,16.60
2023-02-27T07:56:02.215Z,15.55
2023-02-27T07:56:35.797Z,12.70
2023-02-27T07:57:07.902Z,12.40
2023-02-27T07:57:42.617Z,13.63
2023-02-27T07:58:17.460Z,16.33
2023-02-27T07:58:49.948Z,17.83
2023-02-27T07:59:24.603Z,18.83
2023-02-27T07:59:56.773Z,33.60
2023-02-27T08:00:29.714Z,29.45
2023-02-27T08:01:04.557Z,36.92
2023-02-27T08:01:36.750Z,42.83
2023-02-27T08:02:15.673Z,21.73
2023-02-27T08:02:47.867Z,22.80
2023-02-27T08:03:22.628Z,18.83
2023-02-27T08:03:56.555Z,29.95
2023-02-27T08:04:31.364Z,25.95
2023-02-27T08:05:03.790Z,51.83
2023-02-27T08:05:38.655Z,37.47
2023-02-27T08:06:11.353Z,26.25
2023-02-27T08:06:46.060Z,31.58
2023-02-27T08:07:18.358Z,28.92
2023-02-27T08:07:53.000Z,25.92
2023-02-27T08:08:25.183Z,28.75
2023-02-27T08:08:57.446Z,37.40
2023-02-27T08:09:32.513Z,34.38
2023-02-27T08:10:05.532Z,30.80
2023-02-27T08:10:40.228Z,26.02